sensor_id;sensor_type;location;lat;lon;timestamp;P1;durP1;ratioP1;P2;durP2;ratioP2
7231;SDS011;3657;49.630;11.018;2022-10-22T00:01:24;7.77;;;7.47;;
7231;SDS011;3657;49.630;11.018;2022-10-22T00:03:52;8.60;;;8.30;;
7231;SDS011;3657;49.630;11.018;2022-10-22T00:06:20;9.17;;;8.77;;
7231;SDS011;3657;49.630;11.018;2022-10-22T00:08:47;11.13;;;10.53;;
7231;SDS011;3657;49.630;11.018;2022-10-22T00:11:14;10.13;;;9.60;;
7231;SDS011;3657;49.630;11.018;2022-10-22T00:13:43;8.77;;;8.47;;
7231;SDS011;3657;49.630;11.018;2022-10-22T00:16:10;8.13;;;7.70;;
7231;SDS011;3657;49.630;11.018;2022-10-22T00:18:38;10.97;;;10.23;;
7231;SDS011;3657;49.630;11.018;2022-10-22T00:21:05;11.93;;;11.23;;
7231;SDS011;3657;49.630;11.018;2022-10-22T00:23:34;7.83;;;7.53;;
7231;SDS011;3657;49.630;11.018;2022-10-22T00:26:00;8.67;;;8.27;;
7231;SDS011;3657;49.630;11.018;2022-10-22T00:28:27;10.23;;;9.73;;
7231;SDS011;3657;49.630;11.018;2022-10-22T00:30:54;8.27;;;7.97;;
7231;SDS011;3657;49.630;11.018;2022-10-22T00:33:21;11.53;;;10.93;;
7231;SDS011;3657;49.630;11.018;2022-10-22T00:35:48;9.17;;;8.87;;
7231;SDS011;3657;49.630;11.018;2022-10-22T00:38:15;11.13;;;10.53;;
7231;SDS011;3657;49.630;11.018;2022-10-22T00:40:43;7.50;;;7.17;;
7231;SDS011;3657;49.630;11.018;2022-10-22T00:43:11;11.73;;;11.23;;
7231;SDS011;3657;49.630;11.018;2022-10-22T00:45:39;7.93;;;7.63;;
7231;SDS011;3657;49.630;11.018;2022-10-22T00:48:07;9.43;;;9.07;;
7231;SDS011;3657;49.630;11.018;2022-10-22T00:50:37;7.70;;;7.40;;
7231;SDS011;3657;49.630;11.018;2022-10-22T00:53:07;9.73;;;8.97;;
7231;SDS011;3657;49.630;11.018;2022-10-22T00:55:38;7.30;;;7.00;;
7231;SDS011;3657;49.630;11.018;2022-10-22T00:58:07;10.03;;;9.63;;
7231;SDS011;3657;49.630;11.018;2022-10-22T01:00:34;8.00;;;7.60;;
7231;SDS011;3657;49.630;11.018;2022-10-22T01:03:01;9.57;;;8.93;;
7231;SDS011;3657;49.630;11.018;2022-10-22T01:05:28;8.27;;;7.90;;
7231;SDS011;3657;49.630;11.018;2022-10-22T01:07:58;8.30;;;8.00;;
7231;SDS011;3657;49.630;11.018;2022-10-22T01:10:37;7.97;;;7.47;;
7231;SDS011;3657;49.630;11.018;2022-10-22T01:13:22;8.00;;;7.60;;
7231;SDS011;3657;49.630;11.018;2022-10-22T01:15:58;8.10;;;7.77;;
7231;SDS011;3657;49.630;11.018;2022-10-22T01:18:33;10.33;;;9.60;;
7231;SDS011;3657;49.630;11.018;2022-10-22T01:21:10;7.40;;;7.20;;
7231;SDS011;3657;49.630;11.018;2022-10-22T01:23:54;9.03;;;8.37;;
7231;SDS011;3657;49.630;11.018;2022-10-22T01:26:47;8.23;;;7.50;;
7231;SDS011;3657;49.630;11.018;2022-10-22T01:29:33;8.13;;;7.77;;
7231;SDS011;3657;49.630;11.018;2022-10-22T01:32:06;8.43;;;7.93;;
7231;SDS011;3657;49.630;11.018;2022-10-22T01:34:36;8.20;;;7.63;;
7231;SDS011;3657;49.630;11.018;2022-10-22T01:37:05;9.33;;;8.63;;
7231;SDS011;3657;49.630;11.018;2022-10-22T01:39:34;8.90;;;8.43;;
7231;SDS011;3657;49.630;11.018;2022-10-22T01:42:03;7.60;;;7.27;;
7231;SDS011;3657;49.630;11.018;2022-10-22T01:44:31;8.83;;;8.23;;
7231;SDS011;3657;49.630;11.018;2022-10-22T01:47:04;8.97;;;8.40;;
7231;SDS011;3657;49.630;11.018;2022-10-22T01:52:42;8.47;;;8.07;;
7231;SDS011;3657;49.630;11.018;2022-10-22T01:55:20;8.47;;;8.07;;
7231;SDS011;3657;49.630;11.018;2022-10-22T01:57:56;7.33;;;7.03;;
7231;SDS011;3657;49.630;11.018;2022-10-22T02:00:34;8.77;;;8.27;;
7231;SDS011;3657;49.630;11.018;2022-10-22T02:03:06;8.17;;;7.87;;
7231;SDS011;3657;49.630;11.018;2022-10-22T02:05:37;8.93;;;8.43;;
7231;SDS011;3657;49.630;11.018;2022-10-22T02:08:09;7.50;;;6.97;;
7231;SDS011;3657;49.630;11.018;2022-10-22T02:10:39;7.70;;;7.27;;
7231;SDS011;3657;49.630;11.018;2022-10-22T02:13:09;7.27;;;6.77;;
7231;SDS011;3657;49.630;11.018;2022-10-22T02:15:40;8.17;;;7.57;;
7231;SDS011;3657;49.630;11.018;2022-10-22T02:18:11;6.37;;;6.07;;
7231;SDS011;3657;49.630;11.018;2022-10-22T02:20:39;6.07;;;5.87;;
7231;SDS011;3657;49.630;11.018;2022-10-22T02:23:07;6.97;;;6.43;;
7231;SDS011;3657;49.630;11.018;2022-10-22T02:25:35;7.17;;;6.73;;
7231;SDS011;3657;49.630;11.018;2022-10-22T02:28:07;5.80;;;5.40;;
7231;SDS011;3657;49.630;11.018;2022-10-22T02:30:38;7.17;;;5.43;;
7231;SDS011;3657;49.630;11.018;2022-10-22T02:33:10;6.00;;;5.80;;
7231;SDS011;3657;49.630;11.018;2022-10-22T02:35:41;6.00;;;5.80;;
7231;SDS011;3657;49.630;11.018;2022-10-22T02:38:09;5.90;;;5.70;;
7231;SDS011;3657;49.630;11.018;2022-10-22T02:40:38;5.80;;;5.50;;
7231;SDS011;3657;49.630;11.018;2022-10-22T02:43:05;5.43;;;5.23;;
7231;SDS011;3657;49.630;11.018;2022-10-22T02:45:32;5.43;;;5.03;;
7231;SDS011;3657;49.630;11.018;2022-10-22T02:47:59;5.23;;;5.03;;
7231;SDS011;3657;49.630;11.018;2022-10-22T02:50:27;6.37;;;6.07;;
7231;SDS011;3657;49.630;11.018;2022-10-22T02:52:54;5.73;;;5.43;;
7231;SDS011;3657;49.630;11.018;2022-10-22T02:55:21;5.00;;;4.67;;
7231;SDS011;3657;49.630;11.018;2022-10-22T02:57:47;5.57;;;5.37;;
7231;SDS011;3657;49.630;11.018;2022-10-22T03:00:14;4.67;;;4.53;;
7231;SDS011;3657;49.630;11.018;2022-10-22T03:02:41;6.33;;;6.03;;
7231;SDS011;3657;49.630;11.018;2022-10-22T03:05:08;5.87;;;5.67;;
7231;SDS011;3657;49.630;11.018;2022-10-22T03:07:36;5.50;;;5.30;;
7231;SDS011;3657;49.630;11.018;2022-10-22T03:10:04;6.17;;;5.57;;
7231;SDS011;3657;49.630;11.018;2022-10-22T03:12:31;4.40;;;4.20;;
7231;SDS011;3657;49.630;11.018;2022-10-22T03:14:57;5.00;;;4.80;;
7231;SDS011;3657;49.630;11.018;2022-10-22T03:17:24;5.50;;;5.30;;
7231;SDS011;3657;49.630;11.018;2022-10-22T03:19:51;6.63;;;5.87;;
7231;SDS011;3657;49.630;11.018;2022-10-22T03:22:19;5.27;;;5.07;;
7231;SDS011;3657;49.630;11.018;2022-10-22T03:24:50;6.40;;;6.00;;
7231;SDS011;3657;49.630;11.018;2022-10-22T03:27:19;4.10;;;4.00;;
7231;SDS011;3657;49.630;11.018;2022-10-22T03:29:47;5.73;;;5.43;;
7231;SDS011;3657;49.630;11.018;2022-10-22T03:32:16;4.40;;;4.30;;
7231;SDS011;3657;49.630;11.018;2022-10-22T03:34:43;5.27;;;4.87;;
7231;SDS011;3657;49.630;11.018;2022-10-22T03:37:09;5.60;;;5.20;;
7231;SDS011;3657;49.630;11.018;2022-10-22T03:39:37;4.63;;;4.43;;
7231;SDS011;3657;49.630;11.018;2022-10-22T03:42:05;5.37;;;5.07;;
7231;SDS011;3657;49.630;11.018;2022-10-22T03:44:33;4.50;;;4.33;;
7231;SDS011;3657;49.630;11.018;2022-10-22T03:47:01;5.43;;;5.13;;
7231;SDS011;3657;49.630;11.018;2022-10-22T03:49:28;6.10;;;5.60;;
7231;SDS011;3657;49.630;11.018;2022-10-22T03:51:55;5.10;;;4.80;;
7231;SDS011;3657;49.630;11.018;2022-10-22T03:54:22;6.07;;;5.67;;
7231;SDS011;3657;49.630;11.018;2022-10-22T03:56:48;5.33;;;5.03;;
7231;SDS011;3657;49.630;11.018;2022-10-22T03:59:16;4.53;;;4.23;;
7231;SDS011;3657;49.630;11.018;2022-10-22T04:01:43;4.23;;;4.13;;
7231;SDS011;3657;49.630;11.018;2022-10-22T04:04:10;3.40;;;3.30;;
7231;SDS011;3657;49.630;11.018;2022-10-22T04:06:36;3.77;;;3.47;;
7231;SDS011;3657;49.630;11.018;2022-10-22T04:09:03;4.10;;;3.90;;
7231;SDS011;3657;49.630;11.018;2022-10-22T04:11:30;4.07;;;3.90;;
7231;SDS011;3657;49.630;11.018;2022-10-22T04:13:57;4.10;;;3.90;;
7231;SDS011;3657;49.630;11.018;2022-10-22T04:16:25;4.20;;;4.10;;
7231;SDS011;3657;49.630;11.018;2022-10-22T04:18:55;4.10;;;3.90;;
7231;SDS011;3657;49.630;11.018;2022-10-22T04:21:22;3.70;;;3.50;;
7231;SDS011;3657;49.630;11.018;2022-10-22T04:23:50;3.40;;;3.23;;
7231;SDS011;3657;49.630;11.018;2022-10-22T04:26:18;3.40;;;3.30;;
7231;SDS011;3657;49.630;11.018;2022-10-22T04:28:46;3.50;;;3.40;;
7231;SDS011;3657;49.630;11.018;2022-10-22T04:31:14;3.80;;;3.60;;
7231;SDS011;3657;49.630;11.018;2022-10-22T04:33:44;3.87;;;3.47;;
7231;SDS011;3657;49.630;11.018;2022-10-22T04:36:12;2.80;;;2.70;;
7231;SDS011;3657;49.630;11.018;2022-10-22T04:38:41;2.90;;;2.80;;
7231;SDS011;3657;49.630;11.018;2022-10-22T04:41:09;3.53;;;3.43;;
7231;SDS011;3657;49.630;11.018;2022-10-22T04:43:37;3.93;;;3.73;;
7231;SDS011;3657;49.630;11.018;2022-10-22T04:46:04;3.83;;;3.53;;
7231;SDS011;3657;49.630;11.018;2022-10-22T04:48:33;2.97;;;2.87;;
7231;SDS011;3657;49.630;11.018;2022-10-22T04:51:01;4.23;;;4.13;;
7231;SDS011;3657;49.630;11.018;2022-10-22T04:53:28;4.27;;;4.07;;
7231;SDS011;3657;49.630;11.018;2022-10-22T04:56:04;5.70;;;5.30;;
7231;SDS011;3657;49.630;11.018;2022-10-22T04:58:32;5.27;;;5.07;;
7231;SDS011;3657;49.630;11.018;2022-10-22T05:00:59;6.33;;;6.03;;
7231;SDS011;3657;49.630;11.018;2022-10-22T05:03:26;3.97;;;3.67;;
7231;SDS011;3657;49.630;11.018;2022-10-22T05:05:52;4.90;;;4.70;;
7231;SDS011;3657;49.630;11.018;2022-10-22T05:08:20;3.90;;;3.80;;
7231;SDS011;3657;49.630;11.018;2022-10-22T05:10:47;3.87;;;3.67;;
7231;SDS011;3657;49.630;11.018;2022-10-22T05:13:14;4.70;;;4.50;;
7231;SDS011;3657;49.630;11.018;2022-10-22T05:15:40;4.10;;;3.90;;
7231;SDS011;3657;49.630;11.018;2022-10-22T05:18:07;4.23;;;4.03;;
7231;SDS011;3657;49.630;11.018;2022-10-22T05:20:34;3.60;;;3.50;;
7231;SDS011;3657;49.630;11.018;2022-10-22T05:23:04;4.53;;;4.30;;
7231;SDS011;3657;49.630;11.018;2022-10-22T05:25:35;4.20;;;4.00;;
7231;SDS011;3657;49.630;11.018;2022-10-22T05:28:02;3.97;;;3.87;;
7231;SDS011;3657;49.630;11.018;2022-10-22T05:30:29;4.77;;;4.57;;
7231;SDS011;3657;49.630;11.018;2022-10-22T05:32:55;5.20;;;4.70;;
7231;SDS011;3657;49.630;11.018;2022-10-22T05:35:22;3.93;;;3.83;;
7231;SDS011;3657;49.630;11.018;2022-10-22T05:37:49;3.20;;;3.10;;
7231;SDS011;3657;49.630;11.018;2022-10-22T05:40:15;3.50;;;3.30;;
7231;SDS011;3657;49.630;11.018;2022-10-22T05:42:44;4.93;;;4.63;;
7231;SDS011;3657;49.630;11.018;2022-10-22T05:45:10;2.83;;;2.63;;
7231;SDS011;3657;49.630;11.018;2022-10-22T05:47:37;3.90;;;3.80;;
7231;SDS011;3657;49.630;11.018;2022-10-22T05:50:05;2.97;;;2.87;;
7231;SDS011;3657;49.630;11.018;2022-10-22T05:52:32;3.63;;;3.53;;
7231;SDS011;3657;49.630;11.018;2022-10-22T05:54:59;4.10;;;3.90;;
7231;SDS011;3657;49.630;11.018;2022-10-22T05:57:25;3.67;;;3.57;;
7231;SDS011;3657;49.630;11.018;2022-10-22T05:59:53;4.00;;;3.70;;
7231;SDS011;3657;49.630;11.018;2022-10-22T06:02:20;3.87;;;3.77;;
7231;SDS011;3657;49.630;11.018;2022-10-22T06:04:47;3.87;;;3.63;;
7231;SDS011;3657;49.630;11.018;2022-10-22T06:07:14;4.40;;;4.20;;
7231;SDS011;3657;49.630;11.018;2022-10-22T06:09:41;6.10;;;5.87;;
7231;SDS011;3657;49.630;11.018;2022-10-22T06:12:08;4.43;;;4.03;;
7231;SDS011;3657;49.630;11.018;2022-10-22T06:14:37;4.30;;;4.13;;
7231;SDS011;3657;49.630;11.018;2022-10-22T06:17:05;4.60;;;4.40;;
7231;SDS011;3657;49.630;11.018;2022-10-22T06:19:32;3.63;;;3.53;;
7231;SDS011;3657;49.630;11.018;2022-10-22T06:21:59;3.73;;;3.63;;
7231;SDS011;3657;49.630;11.018;2022-10-22T06:24:26;4.53;;;4.33;;
7231;SDS011;3657;49.630;11.018;2022-10-22T06:26:52;3.47;;;3.37;;
7231;SDS011;3657;49.630;11.018;2022-10-22T06:29:19;3.73;;;3.63;;
7231;SDS011;3657;49.630;11.018;2022-10-22T06:31:46;5.63;;;5.23;;
7231;SDS011;3657;49.630;11.018;2022-10-22T06:34:15;4.03;;;3.90;;
7231;SDS011;3657;49.630;11.018;2022-10-22T06:36:43;6.60;;;6.20;;
7231;SDS011;3657;49.630;11.018;2022-10-22T06:39:10;4.60;;;4.40;;
7231;SDS011;3657;49.630;11.018;2022-10-22T06:41:38;5.83;;;5.63;;
7231;SDS011;3657;49.630;11.018;2022-10-22T06:44:05;4.37;;;4.10;;
7231;SDS011;3657;49.630;11.018;2022-10-22T06:46:32;5.83;;;4.13;;
7231;SDS011;3657;49.630;11.018;2022-10-22T06:49:00;5.40;;;5.10;;
7231;SDS011;3657;49.630;11.018;2022-10-22T06:51:31;4.43;;;4.20;;
7231;SDS011;3657;49.630;11.018;2022-10-22T06:53:58;4.97;;;4.77;;
7231;SDS011;3657;49.630;11.018;2022-10-22T06:56:25;4.17;;;3.97;;
7231;SDS011;3657;49.630;11.018;2022-10-22T06:58:53;5.27;;;5.00;;
7231;SDS011;3657;49.630;11.018;2022-10-22T07:01:22;5.20;;;5.00;;
7231;SDS011;3657;49.630;11.018;2022-10-22T07:03:50;4.00;;;3.80;;
7231;SDS011;3657;49.630;11.018;2022-10-22T07:06:18;3.80;;;3.70;;
7231;SDS011;3657;49.630;11.018;2022-10-22T07:08:47;4.00;;;3.80;;
7231;SDS011;3657;49.630;11.018;2022-10-22T07:11:14;3.20;;;3.10;;
7231;SDS011;3657;49.630;11.018;2022-10-22T07:13:42;3.90;;;3.70;;
7231;SDS011;3657;49.630;11.018;2022-10-22T07:16:10;4.30;;;4.20;;
7231;SDS011;3657;49.630;11.018;2022-10-22T07:18:37;3.67;;;3.57;;
7231;SDS011;3657;49.630;11.018;2022-10-22T07:21:05;3.60;;;3.50;;
7231;SDS011;3657;49.630;11.018;2022-10-22T07:23:32;3.67;;;3.43;;
7231;SDS011;3657;49.630;11.018;2022-10-22T07:26:01;3.27;;;3.17;;
7231;SDS011;3657;49.630;11.018;2022-10-22T07:28:28;3.40;;;3.30;;
7231;SDS011;3657;49.630;11.018;2022-10-22T07:30:56;3.13;;;2.93;;
7231;SDS011;3657;49.630;11.018;2022-10-22T07:33:23;3.50;;;3.30;;
7231;SDS011;3657;49.630;11.018;2022-10-22T07:35:50;3.07;;;2.97;;
7231;SDS011;3657;49.630;11.018;2022-10-22T07:38:16;3.53;;;3.30;;
7231;SDS011;3657;49.630;11.018;2022-10-22T07:40:43;3.77;;;3.57;;
7231;SDS011;3657;49.630;11.018;2022-10-22T07:43:11;2.90;;;2.80;;
7231;SDS011;3657;49.630;11.018;2022-10-22T07:45:38;3.00;;;2.90;;
7231;SDS011;3657;49.630;11.018;2022-10-22T07:48:05;3.40;;;3.20;;
7231;SDS011;3657;49.630;11.018;2022-10-22T07:50:32;3.70;;;3.60;;
7231;SDS011;3657;49.630;11.018;2022-10-22T07:52:59;3.87;;;3.67;;
7231;SDS011;3657;49.630;11.018;2022-10-22T07:55:26;3.80;;;3.60;;
7231;SDS011;3657;49.630;11.018;2022-10-22T07:57:52;2.80;;;2.70;;
7231;SDS011;3657;49.630;11.018;2022-10-22T08:00:21;3.20;;;3.10;;
7231;SDS011;3657;49.630;11.018;2022-10-22T08:02:48;3.07;;;2.97;;
7231;SDS011;3657;49.630;11.018;2022-10-22T08:05:15;3.13;;;3.03;;
7231;SDS011;3657;49.630;11.018;2022-10-22T08:07:42;2.67;;;2.57;;
7231;SDS011;3657;49.630;11.018;2022-10-22T08:10:10;3.60;;;3.50;;
7231;SDS011;3657;49.630;11.018;2022-10-22T08:12:37;3.93;;;3.80;;
7231;SDS011;3657;49.630;11.018;2022-10-22T08:15:04;3.20;;;3.10;;
7231;SDS011;3657;49.630;11.018;2022-10-22T08:17:33;3.80;;;3.60;;
7231;SDS011;3657;49.630;11.018;2022-10-22T08:20:00;3.43;;;3.23;;
7231;SDS011;3657;49.630;11.018;2022-10-22T08:22:27;3.90;;;3.70;;
7231;SDS011;3657;49.630;11.018;2022-10-22T08:24:53;3.03;;;2.93;;
7231;SDS011;3657;49.630;11.018;2022-10-22T08:27:20;3.83;;;3.63;;
7231;SDS011;3657;49.630;11.018;2022-10-22T08:29:47;3.50;;;3.40;;
7231;SDS011;3657;49.630;11.018;2022-10-22T08:32:14;4.23;;;3.93;;
7231;SDS011;3657;49.630;11.018;2022-10-22T08:34:42;4.20;;;4.00;;
7231;SDS011;3657;49.630;11.018;2022-10-22T08:37:09;3.70;;;3.50;;
7231;SDS011;3657;49.630;11.018;2022-10-22T08:39:38;8.67;;;3.57;;
7231;SDS011;3657;49.630;11.018;2022-10-22T08:42:13;4.47;;;4.30;;
7231;SDS011;3657;49.630;11.018;2022-10-22T08:44:56;3.63;;;3.53;;
7231;SDS011;3657;49.630;11.018;2022-10-22T08:47:40;4.07;;;3.77;;
7231;SDS011;3657;49.630;11.018;2022-10-22T08:50:18;3.53;;;3.33;;
7231;SDS011;3657;49.630;11.018;2022-10-22T08:52:52;3.30;;;2.97;;
7231;SDS011;3657;49.630;11.018;2022-10-22T08:55:24;3.13;;;3.03;;
7231;SDS011;3657;49.630;11.018;2022-10-22T08:57:53;3.13;;;3.03;;
7231;SDS011;3657;49.630;11.018;2022-10-22T09:00:27;3.30;;;3.07;;
7231;SDS011;3657;49.630;11.018;2022-10-22T09:03:03;3.43;;;3.23;;
7231;SDS011;3657;49.630;11.018;2022-10-22T09:05:41;3.27;;;3.07;;
7231;SDS011;3657;49.630;11.018;2022-10-22T09:08:16;2.90;;;2.70;;
7231;SDS011;3657;49.630;11.018;2022-10-22T09:10:45;2.87;;;2.67;;
7231;SDS011;3657;49.630;11.018;2022-10-22T09:13:15;3.07;;;2.87;;
7231;SDS011;3657;49.630;11.018;2022-10-22T09:15:44;6.07;;;2.70;;
7231;SDS011;3657;49.630;11.018;2022-10-22T09:18:18;3.60;;;3.40;;
7231;SDS011;3657;49.630;11.018;2022-10-22T09:20:55;3.00;;;2.90;;
7231;SDS011;3657;49.630;11.018;2022-10-22T09:23:29;2.73;;;2.63;;
7231;SDS011;3657;49.630;11.018;2022-10-22T09:26:03;2.80;;;2.67;;
7231;SDS011;3657;49.630;11.018;2022-10-22T09:28:37;3.20;;;3.10;;
7231;SDS011;3657;49.630;11.018;2022-10-22T09:31:07;2.43;;;2.33;;
7231;SDS011;3657;49.630;11.018;2022-10-22T09:33:36;3.00;;;2.90;;
7231;SDS011;3657;49.630;11.018;2022-10-22T09:36:04;2.73;;;2.63;;
7231;SDS011;3657;49.630;11.018;2022-10-22T09:38:33;2.60;;;2.50;;
7231;SDS011;3657;49.630;11.018;2022-10-22T09:41:04;2.97;;;2.87;;
7231;SDS011;3657;49.630;11.018;2022-10-22T09:43:31;2.73;;;2.63;;
7231;SDS011;3657;49.630;11.018;2022-10-22T09:46:01;3.47;;;3.27;;
7231;SDS011;3657;49.630;11.018;2022-10-22T09:48:32;3.60;;;3.30;;
7231;SDS011;3657;49.630;11.018;2022-10-22T09:51:03;2.83;;;2.73;;
7231;SDS011;3657;49.630;11.018;2022-10-22T09:53:38;3.80;;;2.50;;
7231;SDS011;3657;49.630;11.018;2022-10-22T09:56:09;2.77;;;2.67;;
7231;SDS011;3657;49.630;11.018;2022-10-22T09:58:44;2.23;;;2.23;;
7231;SDS011;3657;49.630;11.018;2022-10-22T10:01:15;2.70;;;2.60;;
7231;SDS011;3657;49.630;11.018;2022-10-22T10:03:44;3.13;;;2.93;;
7231;SDS011;3657;49.630;11.018;2022-10-22T10:06:17;3.07;;;2.97;;
7231;SDS011;3657;49.630;11.018;2022-10-22T10:08:45;2.67;;;2.07;;
7231;SDS011;3657;49.630;11.018;2022-10-22T10:11:14;2.27;;;2.20;;
7231;SDS011;3657;49.630;11.018;2022-10-22T10:13:51;2.27;;;2.13;;
7231;SDS011;3657;49.630;11.018;2022-10-22T10:16:31;2.70;;;2.10;;
7231;SDS011;3657;49.630;11.018;2022-10-22T10:19:11;2.30;;;2.20;;
7231;SDS011;3657;49.630;11.018;2022-10-22T10:21:56;2.30;;;2.27;;
7231;SDS011;3657;49.630;11.018;2022-10-22T10:24:38;2.30;;;2.30;;
7231;SDS011;3657;49.630;11.018;2022-10-22T10:27:19;2.50;;;2.40;;
7231;SDS011;3657;49.630;11.018;2022-10-22T10:29:53;2.00;;;2.00;;
7231;SDS011;3657;49.630;11.018;2022-10-22T10:32:28;2.40;;;2.40;;
7231;SDS011;3657;49.630;11.018;2022-10-22T10:35:15;1.67;;;1.67;;
7231;SDS011;3657;49.630;11.018;2022-10-22T10:37:52;2.60;;;2.50;;
7231;SDS011;3657;49.630;11.018;2022-10-22T10:40:32;2.20;;;2.20;;
7231;SDS011;3657;49.630;11.018;2022-10-22T10:43:06;2.43;;;2.43;;
7231;SDS011;3657;49.630;11.018;2022-10-22T10:45:40;1.80;;;1.80;;
7231;SDS011;3657;49.630;11.018;2022-10-22T10:48:22;2.20;;;2.20;;
7231;SDS011;3657;49.630;11.018;2022-10-22T10:51:01;2.63;;;2.53;;
7231;SDS011;3657;49.630;11.018;2022-10-22T10:53:39;1.93;;;1.93;;
7231;SDS011;3657;49.630;11.018;2022-10-22T10:56:15;2.20;;;2.20;;
7231;SDS011;3657;49.630;11.018;2022-10-22T10:58:55;1.60;;;1.50;;
7231;SDS011;3657;49.630;11.018;2022-10-22T11:01:28;2.10;;;2.07;;
7231;SDS011;3657;49.630;11.018;2022-10-22T11:07:10;2.47;;;2.47;;
7231;SDS011;3657;49.630;11.018;2022-10-22T11:09:42;2.20;;;2.10;;
7231;SDS011;3657;49.630;11.018;2022-10-22T11:12:16;2.20;;;2.10;;
7231;SDS011;3657;49.630;11.018;2022-10-22T11:14:49;2.10;;;2.10;;
7231;SDS011;3657;49.630;11.018;2022-10-22T11:17:23;2.20;;;2.20;;
7231;SDS011;3657;49.630;11.018;2022-10-22T11:19:55;2.33;;;2.23;;
7231;SDS011;3657;49.630;11.018;2022-10-22T11:22:28;2.67;;;2.57;;
7231;SDS011;3657;49.630;11.018;2022-10-22T11:25:02;2.67;;;1.97;;
7231;SDS011;3657;49.630;11.018;2022-10-22T11:27:34;2.20;;;2.20;;
7231;SDS011;3657;49.630;11.018;2022-10-22T11:30:10;2.00;;;2.00;;
7231;SDS011;3657;49.630;11.018;2022-10-22T11:32:39;3.03;;;2.93;;
7231;SDS011;3657;49.630;11.018;2022-10-22T11:35:11;2.77;;;2.67;;
7231;SDS011;3657;49.630;11.018;2022-10-22T11:37:41;2.07;;;1.97;;
7231;SDS011;3657;49.630;11.018;2022-10-22T11:40:14;2.23;;;2.03;;
7231;SDS011;3657;49.630;11.018;2022-10-22T11:42:45;1.90;;;1.80;;
7231;SDS011;3657;49.630;11.018;2022-10-22T11:45:27;2.07;;;1.97;;
7231;SDS011;3657;49.630;11.018;2022-10-22T11:47:57;2.30;;;2.30;;
7231;SDS011;3657;49.630;11.018;2022-10-22T11:50:45;2.63;;;2.53;;
7231;SDS011;3657;49.630;11.018;2022-10-22T11:53:18;3.17;;;2.37;;
7231;SDS011;3657;49.630;11.018;2022-10-22T11:55:55;2.03;;;1.97;;
7231;SDS011;3657;49.630;11.018;2022-10-22T11:58:25;1.90;;;1.90;;
7231;SDS011;3657;49.630;11.018;2022-10-22T12:00:55;2.50;;;2.40;;
7231;SDS011;3657;49.630;11.018;2022-10-22T12:03:23;2.27;;;2.17;;
7231;SDS011;3657;49.630;11.018;2022-10-22T12:06:07;2.60;;;2.50;;
7231;SDS011;3657;49.630;11.018;2022-10-22T12:08:45;2.00;;;2.00;;
7231;SDS011;3657;49.630;11.018;2022-10-22T12:11:19;2.60;;;2.50;;
7231;SDS011;3657;49.630;11.018;2022-10-22T12:13:56;2.50;;;2.30;;
7231;SDS011;3657;49.630;11.018;2022-10-22T12:16:29;2.80;;;2.70;;
7231;SDS011;3657;49.630;11.018;2022-10-22T12:19:03;1.80;;;1.80;;
7231;SDS011;3657;49.630;11.018;2022-10-22T12:21:37;3.23;;;1.90;;
7231;SDS011;3657;49.630;11.018;2022-10-22T12:24:06;2.17;;;2.07;;
7231;SDS011;3657;49.630;11.018;2022-10-22T12:26:39;1.83;;;1.83;;
7231;SDS011;3657;49.630;11.018;2022-10-22T12:29:08;2.83;;;1.80;;
7231;SDS011;3657;49.630;11.018;2022-10-22T12:31:37;1.67;;;1.67;;
7231;SDS011;3657;49.630;11.018;2022-10-22T12:34:05;2.43;;;2.23;;
7231;SDS011;3657;49.630;11.018;2022-10-22T12:36:33;1.90;;;1.90;;
7231;SDS011;3657;49.630;11.018;2022-10-22T12:39:02;2.20;;;2.13;;
7231;SDS011;3657;49.630;11.018;2022-10-22T12:41:35;3.03;;;2.50;;
7231;SDS011;3657;49.630;11.018;2022-10-22T12:44:05;2.30;;;2.10;;
7231;SDS011;3657;49.630;11.018;2022-10-22T12:46:32;1.50;;;1.50;;
7231;SDS011;3657;49.630;11.018;2022-10-22T12:49:01;2.23;;;1.70;;
7231;SDS011;3657;49.630;11.018;2022-10-22T12:51:30;2.10;;;2.10;;
7231;SDS011;3657;49.630;11.018;2022-10-22T12:54:05;2.33;;;2.33;;
7231;SDS011;3657;49.630;11.018;2022-10-22T12:56:34;2.60;;;2.50;;
7231;SDS011;3657;49.630;11.018;2022-10-22T12:59:04;2.47;;;2.47;;
7231;SDS011;3657;49.630;11.018;2022-10-22T13:01:40;2.60;;;2.50;;
7231;SDS011;3657;49.630;11.018;2022-10-22T13:04:17;1.87;;;1.87;;
7231;SDS011;3657;49.630;11.018;2022-10-22T13:06:46;1.90;;;1.83;;
7231;SDS011;3657;49.630;11.018;2022-10-22T13:09:15;2.00;;;1.90;;
7231;SDS011;3657;49.630;11.018;2022-10-22T13:11:48;2.20;;;2.10;;
7231;SDS011;3657;49.630;11.018;2022-10-22T13:14:19;1.90;;;1.83;;
7231;SDS011;3657;49.630;11.018;2022-10-22T13:17:06;2.23;;;2.13;;
7231;SDS011;3657;49.630;11.018;2022-10-22T13:19:36;1.70;;;1.70;;
7231;SDS011;3657;49.630;11.018;2022-10-22T13:22:31;2.63;;;2.53;;
7231;SDS011;3657;49.630;11.018;2022-10-22T13:25:14;1.67;;;1.57;;
7231;SDS011;3657;49.630;11.018;2022-10-22T13:27:46;2.20;;;2.20;;
7231;SDS011;3657;49.630;11.018;2022-10-22T13:30:19;1.80;;;1.80;;
7231;SDS011;3657;49.630;11.018;2022-10-22T13:32:50;2.03;;;1.93;;
7231;SDS011;3657;49.630;11.018;2022-10-22T13:35:20;2.23;;;2.13;;
7231;SDS011;3657;49.630;11.018;2022-10-22T13:37:50;1.80;;;1.80;;
7231;SDS011;3657;49.630;11.018;2022-10-22T13:40:17;2.10;;;2.00;;
7231;SDS011;3657;49.630;11.018;2022-10-22T13:42:45;2.10;;;2.10;;
7231;SDS011;3657;49.630;11.018;2022-10-22T13:45:11;2.07;;;1.97;;
7231;SDS011;3657;49.630;11.018;2022-10-22T13:47:40;2.23;;;2.23;;
7231;SDS011;3657;49.630;11.018;2022-10-22T13:50:11;1.73;;;1.73;;
7231;SDS011;3657;49.630;11.018;2022-10-22T13:52:40;2.20;;;2.10;;
7231;SDS011;3657;49.630;11.018;2022-10-22T13:55:17;1.47;;;1.47;;
7231;SDS011;3657;49.630;11.018;2022-10-22T13:57:45;2.47;;;2.40;;
7231;SDS011;3657;49.630;11.018;2022-10-22T14:00:13;1.90;;;1.80;;
7231;SDS011;3657;49.630;11.018;2022-10-22T14:02:42;2.30;;;2.20;;
7231;SDS011;3657;49.630;11.018;2022-10-22T14:05:11;1.50;;;1.50;;
7231;SDS011;3657;49.630;11.018;2022-10-22T14:07:38;2.33;;;2.30;;
7231;SDS011;3657;49.630;11.018;2022-10-22T14:10:09;1.70;;;1.70;;
7231;SDS011;3657;49.630;11.018;2022-10-22T14:12:39;2.47;;;2.37;;
7231;SDS011;3657;49.630;11.018;2022-10-22T14:15:07;2.10;;;2.10;;
7231;SDS011;3657;49.630;11.018;2022-10-22T14:17:35;2.03;;;1.93;;
7231;SDS011;3657;49.630;11.018;2022-10-22T14:20:04;2.03;;;1.93;;
7231;SDS011;3657;49.630;11.018;2022-10-22T14:22:31;1.90;;;1.90;;
7231;SDS011;3657;49.630;11.018;2022-10-22T14:24:58;2.40;;;2.30;;
7231;SDS011;3657;49.630;11.018;2022-10-22T14:27:25;2.33;;;2.20;;
7231;SDS011;3657;49.630;11.018;2022-10-22T14:29:52;1.70;;;1.70;;
7231;SDS011;3657;49.630;11.018;2022-10-22T14:32:18;1.83;;;1.83;;
7231;SDS011;3657;49.630;11.018;2022-10-22T14:34:45;1.80;;;1.80;;
7231;SDS011;3657;49.630;11.018;2022-10-22T14:37:15;1.97;;;1.87;;
7231;SDS011;3657;49.630;11.018;2022-10-22T14:39:43;2.20;;;2.10;;
7231;SDS011;3657;49.630;11.018;2022-10-22T14:42:16;1.60;;;1.60;;
7231;SDS011;3657;49.630;11.018;2022-10-22T14:44:44;2.47;;;1.80;;
7231;SDS011;3657;49.630;11.018;2022-10-22T14:47:10;1.90;;;1.90;;
7231;SDS011;3657;49.630;11.018;2022-10-22T14:49:37;2.13;;;2.10;;
7231;SDS011;3657;49.630;11.018;2022-10-22T14:52:04;1.80;;;1.80;;
7231;SDS011;3657;49.630;11.018;2022-10-22T14:54:32;2.13;;;2.10;;
7231;SDS011;3657;49.630;11.018;2022-10-22T14:56:59;1.67;;;1.57;;
7231;SDS011;3657;49.630;11.018;2022-10-22T14:59:26;1.90;;;1.90;;
7231;SDS011;3657;49.630;11.018;2022-10-22T15:01:53;2.03;;;1.93;;
7231;SDS011;3657;49.630;11.018;2022-10-22T15:04:20;2.50;;;2.40;;
7231;SDS011;3657;49.630;11.018;2022-10-22T15:06:49;2.83;;;2.73;;
7231;SDS011;3657;49.630;11.018;2022-10-22T15:09:20;1.53;;;1.53;;
7231;SDS011;3657;49.630;11.018;2022-10-22T15:11:48;2.20;;;2.17;;
7231;SDS011;3657;49.630;11.018;2022-10-22T15:14:15;2.00;;;1.90;;
7231;SDS011;3657;49.630;11.018;2022-10-22T15:16:42;1.83;;;1.83;;
7231;SDS011;3657;49.630;11.018;2022-10-22T15:19:09;2.40;;;2.30;;
7231;SDS011;3657;49.630;11.018;2022-10-22T15:21:36;1.83;;;1.83;;
7231;SDS011;3657;49.630;11.018;2022-10-22T15:24:03;1.67;;;1.67;;